Mizpah, Montana
Current Conditions -  °F | °C
As of 12:53 PM on Monday 26 Jan 2015 (Local Time) from KMLS Reporting Station
Clear Clear  
Wind Chill: 56°   Ceiling: Unl
Heat Index: 56°   Visibility: 10mi
Dew Point: 35°   Wind: 7mph
Humidity: 45%   Direction: 260°W
Pressure: 29.98"   Gusts: NA
Location:  46.24°N, 105.27°W
Report Text: KMLS 261953Z AUTO 26006KT 10SM CLR 13/02 A2998 RMK AO2 SLP154 T01330017
Loading
Personal Weather Stations






























Interactive Weather Map New forecast layout! Learn more

10-Day Weather Forecast

Advertisements
Track Severe Weather on mobile